Alpine Link — V7SZ7 — position and weather

sailwx.info

Track history (hours):
 
Tides and Currents Weather Stations Pressure Air Temp Water Temp Dewpoint Dewpoint Depression Visibility Wind Speed Wind Dir Waves Ship Positions

Alpine Link

Last reported at 2014-Dec-20 03:33 UTC. Time now 2014-Dec-20 11:33 UTC.
Position N 41°27' E 029°36'.

Length 183 m; draft 8.5 m.

Type: Tanker. MMSI: 538003758.

Date/timePositionNaut miles runAvg speedWind from/ knotsBaromVisibWave heightAir tempDewpointWater temp
2014-Dec-20 03:33N 41°27' E 029°36'40 9.9
2014-Dec-19 23:33N 40°58' E 028°59'9 8.6
2014-Dec-19 22:31N 40°50' E 028°54'4 3.5
2014-Dec-19 21:25N 40°47' E 028°56'0 0.3
2014-Dec-19 20:31N 40°47' E 028°56'1 0.3
2014-Dec-19 18:07N 40°47' E 028°57'0 0.2
2014-Dec-19 15:19N 40°46' E 028°57'0 0.3
2014-Dec-19 14:19N 40°46' E 028°57'0 0.3
2014-Dec-19 13:31N 40°46' E 028°57'0 0.2
2014-Dec-19 12:25N 40°46' E 028°56'1 0.3
2014-Dec-19 10:31N 40°46' E 028°56'0 0.2
2014-Dec-19 09:25N 40°46' E 028°56'0 0.2
2014-Dec-19 08:07N 40°47' E 028°56'0 0.4
2014-Dec-19 07:31N 40°47' E 028°56'0 0.4
2014-Dec-19 06:29N 40°47' E 028°57'2 2.4
2014-Dec-19 05:33N 40°49' E 028°56'7 1.7
2014-Dec-19 01:05N 40°56' E 028°53'0 0.1
2014-Dec-19 00:27N 40°56' E 028°53'7 7.3
2014-Dec-18 23:30N 40°50' E 028°49'10512.8
2014-Dec-18 15:17N 40°19' E 026°36'64 4.3
2014-Dec-18 00:17N 39°32' E 025°39'10913.4
2014-Dec-17 16:10N 37°56' E 024°35'1013.3
2014-Dec-17 15:26N 37°49' E 024°25'1413.2
2014-Dec-17 14:21N 37°40' E 024°12'1012.6
2014-Dec-17 13:33N 37°37' E 023°60'1313.4
2014-Dec-17 12:33N 37°39' E 023°43'1212.2
2014-Dec-17 11:33N 37°49' E 023°34'1413.7
2014-Dec-17 10:31N 37°52' E 023°17'1010.0
2014-Dec-17 09:33N 37°55' E 023°05'0 0.0
2014-Dec-15 11:30N 37°55' E 023°05'7 6.3
2014-Dec-15 10:20N 37°53' E 023°15'1012.8
2014-Dec-15 09:33N 37°51' E 023°27'1111.3
2014-Dec-15 08:33N 37°48' E 023°41'1212.3
2014-Dec-15 07:33N 37°39' E 023°51'1312.6
2014-Dec-15 06:33N 37°37' E 024°07'1413.6
2014-Dec-15 05:33N 37°45' E 024°20'9 9.2
2014-Dec-15 04:33N 37°51' E 024°29'2114.3
2014-Dec-15 03:05N 38°09' E 024°44'914.8
2014-Dec-15 02:30N 38°16' E 024°49'3313.7
2014-Dec-15 00:05N 38°47' E 025°07'  
2014-Dec-12 15:08N 41°24' E 029°02'16 3.4
2014-Dec-12 10:25N 41°35' E 029°18'  
Track history (hours):
 
Tides and Currents Weather Stations Pressure Air Temp Water Temp Dewpoint Dewpoint Depression Visibility Wind Speed Wind Dir Waves Ship Positions

Alpine Link

Last reported at 2014-Dec-20 03:33 UTC. Time now 2014-Dec-20 11:33 UTC.
Position N 41°27' E 029°36'.

Length 183 m; draft 8.5 m.

Type: Tanker. MMSI: 538003758.

Date/timePositionNaut miles runAvg speedWind from/ knotsBaromVisibWave heightAir tempDewpointWater temp
2014-Dec-20 03:33N 41°27' E 029°36'40 9.9
2014-Dec-19 23:33N 40°58' E 028°59'9 8.6
2014-Dec-19 22:31N 40°50' E 028°54'4 3.5
2014-Dec-19 21:25N 40°47' E 028°56'0 0.3
2014-Dec-19 20:31N 40°47' E 028°56'1 0.3
2014-Dec-19 18:07N 40°47' E 028°57'0 0.2
2014-Dec-19 15:19N 40°46' E 028°57'0 0.3
2014-Dec-19 14:19N 40°46' E 028°57'0 0.3
2014-Dec-19 13:31N 40°46' E 028°57'0 0.2
2014-Dec-19 12:25N 40°46' E 028°56'1 0.3
2014-Dec-19 10:31N 40°46' E 028°56'0 0.2
2014-Dec-19 09:25N 40°46' E 028°56'0 0.2
2014-Dec-19 08:07N 40°47' E 028°56'0 0.4
2014-Dec-19 07:31N 40°47' E 028°56'0 0.4
2014-Dec-19 06:29N 40°47' E 028°57'2 2.4
2014-Dec-19 05:33N 40°49' E 028°56'7 1.7
2014-Dec-19 01:05N 40°56' E 028°53'0 0.1
2014-Dec-19 00:27N 40°56' E 028°53'7 7.3
2014-Dec-18 23:30N 40°50' E 028°49'10512.8
2014-Dec-18 15:17N 40°19' E 026°36'64 4.3
2014-Dec-18 00:17N 39°32' E 025°39'10913.4
2014-Dec-17 16:10N 37°56' E 024°35'1013.3
2014-Dec-17 15:26N 37°49' E 024°25'1413.2
2014-Dec-17 14:21N 37°40' E 024°12'1012.6
2014-Dec-17 13:33N 37°37' E 023°60'1313.4
2014-Dec-17 12:33N 37°39' E 023°43'1212.2
2014-Dec-17 11:33N 37°49' E 023°34'1413.7
2014-Dec-17 10:31N 37°52' E 023°17'1010.0
2014-Dec-17 09:33N 37°55' E 023°05'0 0.0
2014-Dec-15 11:30N 37°55' E 023°05'7 6.3
2014-Dec-15 10:20N 37°53' E 023°15'1012.8
2014-Dec-15 09:33N 37°51' E 023°27'1111.3
2014-Dec-15 08:33N 37°48' E 023°41'1212.3
2014-Dec-15 07:33N 37°39' E 023°51'1312.6
2014-Dec-15 06:33N 37°37' E 024°07'1413.6
2014-Dec-15 05:33N 37°45' E 024°20'9 9.2
2014-Dec-15 04:33N 37°51' E 024°29'2114.3
2014-Dec-15 03:05N 38°09' E 024°44'914.8
2014-Dec-15 02:30N 38°16' E 024°49'3313.7
2014-Dec-15 00:05N 38°47' E 025°07'  
2014-Dec-12 15:08N 41°24' E 029°02'16 3.4
2014-Dec-12 10:25N 41°35' E 029°18'  

Dump ship's entire track history